createdAt,value
2022-12-11T00:01:21.542Z,5.13
2022-12-11T00:03:50.657Z,5.09
2022-12-11T00:06:23.594Z,5.08
2022-12-11T00:08:55.115Z,5.10
2022-12-11T00:11:24.205Z,5.12
2022-12-11T00:13:53.149Z,5.18
2022-12-11T00:16:26.731Z,5.20
2022-12-11T00:18:55.970Z,5.19
2022-12-11T00:21:24.685Z,5.18
2022-12-11T00:23:53.663Z,5.13
2022-12-11T00:26:22.640Z,5.19
2022-12-11T00:28:57.340Z,5.23
2022-12-11T00:31:26.182Z,5.31
2022-12-11T00:33:54.834Z,5.33
2022-12-11T00:36:26.630Z,5.39
2022-12-11T00:38:55.618Z,5.41
2022-12-11T00:41:24.499Z,5.42
2022-12-11T00:43:53.199Z,5.39
2022-12-11T00:46:22.032Z,5.32
2022-12-11T00:48:51.189Z,5.32
2022-12-11T00:51:20.380Z,5.31
2022-12-11T00:53:49.137Z,5.40
2022-12-11T00:56:22.316Z,5.42
2022-12-11T00:58:51.168Z,5.46
2022-12-11T01:01:24.435Z,5.50
2022-12-11T01:03:54.374Z,5.49
2022-12-11T01:06:26.528Z,5.51
2022-12-11T01:09:15.005Z,5.53
2022-12-11T01:11:44.228Z,5.49
2022-12-11T01:14:14.525Z,5.41
2022-12-11T01:16:43.224Z,5.30
2022-12-11T01:19:11.985Z,5.24
2022-12-11T01:23:14.285Z,5.13
2022-12-11T01:25:43.628Z,5.01
2022-12-11T01:28:12.347Z,4.93
2022-12-11T01:30:44.045Z,4.86
2022-12-11T01:33:12.756Z,4.79
2022-12-11T01:35:41.517Z,4.73
2022-12-11T01:38:10.740Z,4.66
2022-12-11T01:40:39.432Z,4.61
2022-12-11T01:43:12.208Z,4.55
2022-12-11T01:45:47.840Z,4.70
2022-12-11T01:48:28.865Z,4.75
2022-12-11T01:51:03.156Z,4.72
2022-12-11T01:53:40.107Z,4.74
2022-12-11T01:56:10.552Z,4.72
2022-12-11T01:58:52.752Z,4.65
2022-12-11T02:01:34.025Z,4.64
2022-12-11T02:04:03.455Z,4.58
2022-12-11T02:07:02.039Z,4.52
2022-12-11T02:09:37.991Z,4.57
2022-12-11T02:12:34.632Z,4.60
2022-12-11T02:15:33.832Z,4.51
2022-12-11T02:18:30.391Z,4.50
2022-12-11T02:21:10.533Z,4.55
2022-12-11T02:24:20.714Z,4.56
2022-12-11T02:27:10.740Z,4.62
2022-12-11T02:30:11.173Z,4.55
2022-12-11T02:32:58.621Z,4.75
2022-12-11T02:35:55.443Z,4.95
2022-12-11T02:38:34.267Z,4.89
2022-12-11T02:41:05.924Z,4.87
2022-12-11T02:43:36.596Z,4.83
2022-12-11T02:46:15.610Z,4.89
2022-12-11T02:48:47.184Z,4.90
2022-12-11T02:51:20.804Z,4.89
2022-12-11T02:53:54.228Z,4.91
2022-12-11T02:56:41.075Z,4.95
2022-12-11T02:59:16.445Z,4.97
2022-12-11T03:01:46.677Z,5.02
2022-12-11T03:04:15.559Z,5.01
2022-12-11T03:06:50.579Z,4.96
2022-12-11T03:09:21.417Z,4.97
2022-12-11T03:11:50.186Z,5.00
2022-12-11T03:14:19.305Z,5.04
2022-12-11T03:17:16.894Z,5.06
2022-12-11T03:20:30.681Z,5.08
2022-12-11T03:23:14.254Z,5.21
2022-12-11T03:25:58.884Z,5.27
2022-12-11T03:28:49.819Z,5.26
2022-12-11T03:31:33.679Z,5.41
2022-12-11T03:34:08.841Z,5.47
2022-12-11T03:36:39.646Z,5.43
2022-12-11T03:39:37.361Z,5.43
2022-12-11T03:42:10.601Z,5.47
2022-12-11T03:44:40.810Z,5.58
2022-12-11T03:47:10.864Z,5.52
2022-12-11T03:49:43.851Z,5.44
2022-12-11T03:52:16.026Z,5.42
2022-12-11T03:54:49.749Z,5.40
2022-12-11T03:57:25.357Z,5.42
2022-12-11T03:59:53.914Z,5.43
2022-12-11T04:02:22.640Z,5.50
2022-12-11T04:04:51.430Z,5.59
2022-12-11T04:07:20.110Z,5.60
2022-12-11T04:09:48.856Z,5.65
2022-12-11T04:12:17.623Z,5.67
2022-12-11T04:15:04.659Z,5.60
2022-12-11T04:17:55.482Z,5.55
2022-12-11T04:20:42.507Z,5.45
2022-12-11T04:23:34.836Z,5.47
2022-12-11T04:26:15.995Z,5.54
2022-12-11T04:28:46.514Z,5.51
2022-12-11T04:31:22.349Z,5.63
2022-12-11T04:33:51.113Z,5.65
2022-12-11T04:36:19.839Z,5.67
2022-12-11T04:38:48.552Z,5.82
2022-12-11T04:41:18.119Z,5.75
2022-12-11T04:43:46.672Z,5.85
2022-12-11T04:46:22.320Z,5.84
2022-12-11T04:48:57.429Z,5.76
2022-12-11T04:51:28.828Z,5.84
2022-12-11T04:53:59.727Z,6.00
2022-12-11T04:56:28.441Z,6.00
2022-12-11T04:58:57.211Z,5.99
2022-12-11T05:01:25.981Z,6.02
2022-12-11T05:03:54.682Z,6.00
2022-12-11T05:06:23.288Z,6.02
2022-12-11T05:08:51.983Z,6.04
2022-12-11T05:11:22.549Z,6.07
2022-12-11T05:13:52.314Z,6.05
2022-12-11T05:16:21.118Z,6.03
2022-12-11T05:18:49.852Z,5.97
2022-12-11T05:21:18.585Z,5.87
2022-12-11T05:23:47.234Z,5.82
2022-12-11T05:26:20.121Z,5.78
2022-12-11T05:28:54.493Z,5.74
2022-12-11T05:31:28.342Z,5.75
2022-12-11T05:33:57.135Z,5.74
2022-12-11T05:36:30.588Z,5.72
2022-12-11T05:39:00.903Z,5.66
2022-12-11T05:41:31.680Z,5.61
2022-12-11T05:44:00.473Z,5.64
2022-12-11T05:46:31.413Z,5.64
2022-12-11T05:49:02.655Z,5.70
2022-12-11T05:51:34.556Z,5.70
2022-12-11T05:54:04.022Z,5.57
2022-12-11T05:56:34.725Z,5.52
2022-12-11T05:59:05.594Z,5.51
2022-12-11T06:01:43.400Z,5.62
2022-12-11T06:04:12.775Z,5.71
2022-12-11T06:06:44.099Z,5.71
2022-12-11T06:09:17.574Z,5.70
2022-12-11T06:11:46.205Z,5.79
2022-12-11T06:14:14.885Z,5.94
2022-12-11T06:16:43.559Z,6.04
2022-12-11T06:19:18.232Z,6.06
2022-12-11T06:21:49.200Z,6.04
2022-12-11T06:24:17.864Z,6.13
2022-12-11T06:26:46.559Z,6.22
2022-12-11T06:29:15.389Z,6.28
2022-12-11T06:31:44.191Z,6.22
2022-12-11T06:34:14.193Z,6.28
2022-12-11T06:36:42.965Z,6.41
2022-12-11T06:39:12.558Z,6.56
2022-12-11T06:41:41.359Z,6.74
2022-12-11T06:44:10.047Z,6.84
2022-12-11T06:46:38.652Z,7.00
2022-12-11T06:49:07.222Z,7.11
2022-12-11T06:51:35.816Z,7.20
2022-12-11T06:54:04.704Z,7.34
2022-12-11T06:56:36.674Z,7.44
2022-12-11T06:59:07.558Z,7.47
2022-12-11T07:01:36.506Z,7.53
2022-12-11T07:04:05.338Z,7.61
2022-12-11T07:06:33.999Z,7.68
2022-12-11T07:09:05.850Z,7.76
2022-12-11T07:11:34.565Z,7.82
2022-12-11T07:14:03.695Z,7.86
2022-12-11T07:16:32.456Z,7.91
2022-12-11T07:19:01.190Z,7.99
2022-12-11T07:21:29.989Z,8.04
2022-12-11T07:23:59.217Z,8.07
2022-12-11T07:26:27.910Z,8.14
2022-12-11T07:29:00.808Z,8.19
2022-12-11T07:31:30.756Z,8.22
2022-12-11T07:34:06.568Z,8.24
2022-12-11T07:36:35.846Z,8.27
2022-12-11T07:39:04.772Z,8.32
2022-12-11T07:41:33.475Z,8.31
2022-12-11T07:44:03.987Z,8.37
2022-12-11T07:46:34.631Z,8.44
2022-12-11T07:49:06.161Z,8.48
2022-12-11T07:51:37.838Z,8.55
2022-12-11T07:54:16.920Z,8.70
2022-12-11T07:56:53.172Z,8.78
2022-12-11T07:59:22.610Z,8.85
2022-12-11T08:01:51.341Z,8.89
2022-12-11T08:04:20.076Z,8.96
2022-12-11T08:06:48.817Z,9.02
2022-12-11T08:09:22.811Z,9.08
2022-12-11T08:11:51.866Z,9.12
2022-12-11T08:14:21.201Z,9.13
2022-12-11T08:16:50.187Z,9.19
2022-12-11T08:19:19.483Z,9.22
2022-12-11T08:21:48.304Z,9.25
2022-12-11T08:24:20.451Z,9.32
2022-12-11T08:26:49.258Z,9.37
2022-12-11T08:29:18.075Z,9.41
2022-12-11T08:31:46.776Z,9.44
2022-12-11T08:34:16.546Z,9.49
2022-12-11T08:36:45.287Z,9.54
2022-12-11T08:39:13.983Z,9.57
2022-12-11T08:41:42.643Z,9.59
2022-12-11T08:44:16.649Z,9.65
2022-12-11T08:46:46.200Z,9.72
2022-12-11T08:49:14.926Z,9.81
2022-12-11T08:51:43.572Z,9.88
2022-12-11T08:54:12.349Z,9.89
2022-12-11T08:56:41.159Z,9.95
2022-12-11T08:59:13.325Z,10.00
2022-12-11T09:01:42.229Z,9.99
2022-12-11T09:04:10.877Z,10.03
2022-12-11T09:06:39.724Z,10.07
2022-12-11T09:09:08.419Z,10.15
2022-12-11T09:11:38.247Z,10.24
2022-12-11T09:14:08.416Z,10.28
2022-12-11T09:16:40.988Z,10.37
2022-12-11T09:19:15.089Z,10.43
2022-12-11T09:21:47.444Z,10.47
2022-12-11T09:24:16.306Z,10.53
2022-12-11T09:26:45.047Z,10.55
2022-12-11T09:29:13.970Z,10.56
2022-12-11T09:31:42.969Z,10.64
2022-12-11T09:34:13.434Z,10.72
2022-12-11T09:36:44.502Z,10.79
2022-12-11T09:39:15.516Z,10.87
2022-12-11T09:41:51.940Z,10.72
2022-12-11T09:44:49.890Z,10.89
2022-12-11T09:47:25.652Z,10.94
2022-12-11T09:50:07.280Z,10.95
2022-12-11T09:53:12.182Z,11.00
2022-12-11T09:56:48.117Z,11.08
2022-12-11T09:59:25.961Z,11.16
2022-12-11T10:02:37.965Z,11.13
2022-12-11T10:05:21.886Z,11.14
2022-12-11T10:08:21.430Z,11.15
2022-12-11T10:11:20.853Z,11.17
2022-12-11T10:14:03.339Z,11.18
2022-12-11T10:16:51.232Z,11.07
2022-12-11T10:19:29.270Z,11.12
2022-12-11T10:22:00.633Z,11.21
2022-12-11T10:25:15.320Z,11.00
2022-12-11T10:27:45.423Z,10.54
2022-12-11T10:30:20.230Z,10.26
2022-12-11T10:32:59.481Z,10.04
2022-12-11T10:35:52.244Z,9.91
2022-12-11T10:38:53.470Z,9.74
2022-12-11T10:41:34.149Z,9.60
2022-12-11T10:44:15.790Z,9.36
2022-12-11T10:46:45.852Z,9.02
2022-12-11T10:49:28.657Z,8.71
2022-12-11T10:52:01.712Z,8.43
2022-12-11T10:54:44.164Z,8.24
2022-12-11T10:57:15.559Z,8.21
2022-12-11T10:59:46.814Z,8.27
2022-12-11T11:02:35.037Z,8.23
2022-12-11T11:05:30.608Z,8.23
2022-12-11T11:08:13.881Z,8.12
2022-12-11T11:10:53.267Z,8.08
2022-12-11T11:13:25.440Z,8.04
2022-12-11T11:16:12.700Z,8.06
2022-12-11T11:21:55.428Z,7.91
2022-12-11T11:24:56.140Z,7.89
2022-12-11T11:27:44.373Z,7.78
2022-12-11T11:31:17.139Z,7.67
2022-12-11T11:34:06.105Z,7.84
2022-12-11T11:36:40.849Z,7.81
2022-12-11T11:39:29.538Z,7.73
2022-12-11T11:42:32.826Z,7.67
2022-12-11T11:45:44.468Z,7.48
2022-12-11T11:48:46.927Z,7.85
2022-12-11T11:51:34.858Z,7.82
2022-12-11T11:54:55.883Z,7.61
2022-12-11T11:57:39.312Z,7.54
2022-12-11T12:00:20.901Z,7.86
2022-12-11T12:02:54.897Z,7.86
2022-12-11T12:06:04.785Z,7.96
2022-12-11T12:09:04.483Z,7.97
2022-12-11T12:11:49.706Z,8.05
2022-12-11T12:15:20.445Z,8.11
2022-12-11T12:18:05.498Z,8.26
2022-12-11T12:21:00.604Z,8.34
2022-12-11T12:24:00.590Z,8.41
2022-12-11T12:26:37.618Z,8.53
2022-12-11T12:29:33.682Z,8.61
2022-12-11T12:32:37.707Z,8.70
2022-12-11T12:35:37.867Z,8.83
2022-12-11T12:38:13.016Z,9.19
2022-12-11T12:40:50.619Z,9.50
2022-12-11T12:44:06.683Z,9.96
2022-12-11T12:46:51.906Z,10.55
2022-12-11T12:49:37.622Z,11.05
2022-12-11T12:52:33.039Z,11.45
2022-12-11T12:55:14.195Z,11.42
2022-12-11T12:57:55.294Z,11.33
2022-12-11T13:00:44.597Z,11.65
2022-12-11T13:03:27.814Z,11.76
2022-12-11T13:06:08.181Z,11.82
2022-12-11T13:08:50.172Z,11.61
2022-12-11T13:11:22.345Z,11.34
2022-12-11T13:14:16.394Z,11.10
2022-12-11T13:17:22.444Z,10.34
2022-12-11T13:20:03.947Z,9.76
2022-12-11T13:22:32.622Z,9.50
2022-12-11T13:25:22.334Z,9.27
2022-12-11T13:27:51.581Z,8.98
2022-12-11T13:30:20.250Z,8.65
2022-12-11T13:33:18.190Z,8.42
2022-12-11T13:35:48.092Z,8.16
2022-12-11T13:38:21.034Z,8.02
2022-12-11T13:40:57.402Z,7.92
2022-12-11T13:43:33.747Z,7.75
2022-12-11T13:46:10.887Z,7.68
2022-12-11T13:48:57.337Z,7.63
2022-12-11T13:51:29.208Z,7.58
2022-12-11T13:54:17.268Z,7.45
2022-12-11T13:57:18.425Z,7.41
2022-12-11T13:59:54.851Z,7.37
2022-12-11T14:02:32.850Z,7.32
2022-12-11T14:05:12.689Z,7.30
2022-12-11T14:07:48.894Z,7.25
2022-12-11T14:10:31.645Z,7.22
2022-12-11T14:13:06.440Z,7.23
2022-12-11T14:15:37.308Z,7.21
2022-12-11T14:18:06.439Z,7.20
2022-12-11T14:20:35.309Z,7.18
2022-12-11T14:23:19.693Z,7.17
2022-12-11T14:26:02.457Z,7.16
2022-12-11T14:28:41.542Z,7.21
2022-12-11T14:31:18.398Z,7.18
2022-12-11T14:33:54.131Z,7.20
2022-12-11T14:36:23.626Z,7.22
2022-12-11T14:39:04.965Z,7.25
2022-12-11T14:41:50.045Z,7.29
2022-12-11T14:44:23.867Z,7.34
2022-12-11T14:47:10.703Z,7.42
2022-12-11T14:49:48.284Z,7.52
2022-12-11T14:52:22.494Z,7.53
2022-12-11T14:55:20.043Z,7.58
2022-12-11T14:57:52.054Z,7.63
2022-12-11T15:00:35.979Z,7.63
2022-12-11T15:03:06.709Z,7.66
2022-12-11T15:05:40.519Z,7.62
2022-12-11T15:08:13.006Z,7.59
2022-12-11T15:11:01.629Z,7.39
2022-12-11T15:13:32.203Z,7.18
2022-12-11T15:16:01.519Z,6.96
2022-12-11T15:18:38.595Z,6.84
2022-12-11T15:21:11.769Z,6.53
2022-12-11T15:23:52.803Z,6.27
2022-12-11T15:26:37.490Z,6.03
2022-12-11T15:29:26.942Z,5.92
2022-12-11T15:32:24.431Z,5.80
2022-12-11T15:34:59.938Z,5.64
2022-12-11T15:37:33.132Z,5.68
2022-12-11T15:40:05.075Z,5.49
2022-12-11T15:42:41.995Z,5.48
2022-12-11T15:45:24.152Z,5.42
2022-12-11T15:47:53.474Z,5.29
2022-12-11T15:50:28.867Z,5.33
2022-12-11T15:52:58.066Z,5.26
2022-12-11T15:55:35.352Z,5.23
2022-12-11T15:58:09.650Z,5.19
2022-12-11T16:00:38.437Z,5.21
2022-12-11T16:03:07.075Z,5.17
2022-12-11T16:05:36.010Z,5.13
2022-12-11T16:08:05.506Z,5.08
2022-12-11T16:10:34.220Z,5.05
2022-12-11T16:13:03.041Z,4.94
2022-12-11T16:15:31.955Z,4.78
2022-12-11T16:18:08.318Z,4.73
2022-12-11T16:20:38.487Z,4.73
2022-12-11T16:23:08.599Z,4.72
2022-12-11T16:25:39.673Z,4.67
2022-12-11T16:28:10.892Z,4.63
2022-12-11T16:30:40.247Z,4.63
2022-12-11T16:33:12.949Z,4.53
2022-12-11T16:36:29.886Z,4.60
2022-12-11T16:38:58.783Z,4.60
2022-12-11T16:41:27.429Z,4.63
2022-12-11T16:43:56.213Z,4.55
2022-12-11T16:46:29.840Z,4.56
2022-12-11T16:48:58.538Z,4.59
2022-12-11T16:51:27.216Z,4.54
2022-12-11T16:53:56.134Z,4.57
2022-12-11T16:56:25.657Z,4.56
2022-12-11T17:06:51.627Z,4.63
2022-12-11T17:10:45.228Z,4.63
2022-12-11T17:13:58.889Z,4.30
2022-12-11T17:16:45.014Z,4.53
2022-12-11T17:20:30.894Z,4.50
2022-12-11T17:23:02.888Z,4.40
2022-12-11T17:48:09.225Z,3.90
2022-12-11T17:50:43.760Z,3.86
2022-12-11T18:14:23.682Z,3.73
2022-12-11T18:16:53.206Z,3.67
2022-12-11T18:19:30.799Z,3.53
2022-12-11T18:22:00.968Z,3.55
2022-12-11T18:24:34.067Z,3.55
2022-12-11T18:27:13.847Z,3.56
2022-12-11T18:30:25.756Z,3.46
2022-12-11T18:37:35.124Z,3.64
2022-12-11T18:40:06.035Z,3.80
2022-12-11T18:42:35.248Z,3.85
2022-12-11T18:45:05.450Z,3.81
2022-12-11T18:47:34.315Z,3.67
2022-12-11T18:50:20.282Z,3.64
2022-12-11T18:53:07.290Z,3.40
2022-12-11T18:55:41.175Z,3.49
2022-12-11T18:58:11.802Z,3.41
2022-12-11T19:13:17.396Z,3.22
2022-12-11T19:20:49.194Z,3.11
2022-12-11T19:35:48.797Z,3.14
2022-12-11T19:46:46.167Z,3.14
2022-12-11T19:50:39.374Z,3.14
2022-12-11T19:53:30.233Z,3.22
2022-12-11T19:56:32.862Z,3.34
2022-12-11T20:04:18.381Z,3.40
2022-12-11T20:07:31.175Z,3.47
2022-12-11T20:13:57.100Z,3.55
2022-12-11T20:25:26.731Z,3.31
2022-12-11T20:27:59.476Z,3.26
2022-12-11T20:31:13.678Z,3.24
2022-12-11T20:33:57.887Z,3.21
2022-12-11T20:36:27.216Z,3.09
2022-12-11T20:38:56.363Z,2.91
2022-12-11T20:41:26.820Z,2.86
2022-12-11T20:43:56.137Z,2.80
2022-12-11T20:46:27.698Z,2.72
2022-12-11T20:49:03.452Z,2.82
2022-12-11T20:51:36.333Z,2.73
2022-12-11T20:54:08.350Z,2.60
2022-12-11T20:56:38.152Z,2.45
2022-12-11T20:59:07.174Z,2.26
2022-12-11T21:01:35.952Z,2.06
2022-12-11T21:04:04.908Z,1.96
2022-12-11T21:06:36.565Z,1.84
2022-12-11T21:09:13.984Z,1.73
2022-12-11T21:11:42.747Z,1.67
2022-12-11T21:14:11.487Z,1.56
2022-12-11T21:16:40.963Z,1.39
2022-12-11T21:19:16.505Z,1.34
2022-12-11T21:21:50.982Z,1.25
2022-12-11T21:24:26.683Z,1.22
2022-12-11T21:26:58.296Z,1.14
2022-12-11T21:29:30.364Z,1.17
2022-12-11T21:31:59.619Z,1.15
2022-12-11T21:34:28.556Z,1.13
2022-12-11T21:36:58.371Z,1.07
2022-12-11T21:39:28.761Z,1.02
2022-12-11T21:41:58.315Z,1.08
2022-12-11T21:47:16.707Z,1.07
2022-12-11T21:49:45.349Z,1.02
2022-12-11T21:52:14.647Z,1.00
2022-12-11T21:54:43.453Z,0.96
2022-12-11T21:57:13.045Z,0.91
2022-12-11T21:59:41.771Z,0.83
2022-12-11T22:02:12.451Z,0.74
2022-12-11T22:04:42.364Z,0.69
2022-12-11T22:07:11.089Z,0.62
2022-12-11T22:09:40.227Z,0.59
2022-12-11T22:12:20.538Z,0.54
2022-12-11T22:14:49.457Z,0.54
2022-12-11T22:17:19.097Z,0.48
2022-12-11T22:19:48.254Z,0.49
2022-12-11T22:22:16.935Z,0.40
2022-12-11T22:24:45.866Z,0.41
2022-12-11T22:27:17.840Z,0.37
2022-12-11T22:29:49.202Z,0.30
2022-12-11T22:32:17.834Z,0.26
2022-12-11T22:34:46.548Z,0.16
2022-12-11T22:37:15.247Z,0.10
2022-12-11T22:39:43.955Z,0.01
2022-12-11T22:42:12.686Z,-0.07
2022-12-11T22:44:41.614Z,-0.11
2022-12-11T22:47:10.398Z,-0.22
2022-12-11T22:49:39.212Z,-0.23
2022-12-11T22:52:07.933Z,-0.25
2022-12-11T22:54:42.856Z,-0.25
2022-12-11T22:57:11.835Z,-0.25
2022-12-11T22:59:41.704Z,-0.28
2022-12-11T23:02:10.363Z,-0.31
2022-12-11T23:04:40.382Z,-0.31
2022-12-11T23:07:08.970Z,-0.29
2022-12-11T23:09:37.663Z,-0.32
2022-12-11T23:12:06.939Z,-0.38
2022-12-11T23:14:35.836Z,-0.43
2022-12-11T23:17:04.472Z,-0.39
2022-12-11T23:19:33.217Z,-0.42
2022-12-11T23:22:02.013Z,-0.40
2022-12-11T23:24:30.655Z,-0.43
2022-12-11T23:27:00.458Z,-0.46
2022-12-11T23:29:29.184Z,-0.47
2022-12-11T23:31:57.808Z,-0.44
2022-12-11T23:34:26.490Z,-0.44
2022-12-11T23:36:55.224Z,-0.43
2022-12-11T23:39:23.962Z,-0.45
2022-12-11T23:41:52.505Z,-0.40
2022-12-11T23:44:21.168Z,-0.40
2022-12-11T23:46:53.427Z,-0.43
2022-12-11T23:49:23.288Z,-0.48
2022-12-11T23:51:51.985Z,-0.49
2022-12-11T23:54:20.666Z,-0.45
2022-12-11T23:56:49.353Z,-0.44
2022-12-11T23:59:18.292Z,-0.41
